createdAt,value
2018-01-23T00:00:28.027Z,3.48
2018-01-23T00:01:29.905Z,3.51
2018-01-23T00:02:31.766Z,3.43
2018-01-23T00:03:33.629Z,3.36
2018-01-23T00:04:35.448Z,3.51
2018-01-23T00:05:37.264Z,3.58
2018-01-23T00:06:39.146Z,3.54
2018-01-23T00:07:41.026Z,3.54
2018-01-23T00:08:42.907Z,3.60
2018-01-23T00:09:57.032Z,3.68
2018-01-23T00:10:58.894Z,3.65
2018-01-23T00:12:00.768Z,3.65
2018-01-23T00:13:02.632Z,3.73
2018-01-23T00:14:04.446Z,3.66
2018-01-23T00:15:06.243Z,3.69
2018-01-23T00:16:08.117Z,3.72
2018-01-23T00:17:09.985Z,3.66
2018-01-23T00:18:11.861Z,3.62
2018-01-23T00:19:26.038Z,3.57
2018-01-23T00:20:27.924Z,3.47
2018-01-23T00:21:29.779Z,3.52
2018-01-23T00:22:31.643Z,3.35
2018-01-23T00:23:33.463Z,3.35
2018-01-23T00:24:35.251Z,3.39
2018-01-23T00:25:37.108Z,3.32
2018-01-23T00:26:38.991Z,3.40
2018-01-23T00:27:40.873Z,3.42
2018-01-23T00:28:54.993Z,3.45
2018-01-23T00:29:56.858Z,3.43
2018-01-23T00:30:58.710Z,3.57
2018-01-23T00:32:00.568Z,3.42
2018-01-23T00:33:02.362Z,3.48
2018-01-23T00:34:04.157Z,3.55
2018-01-23T00:35:06.011Z,3.60
2018-01-23T00:36:07.891Z,3.58
2018-01-23T00:37:09.756Z,3.62
2018-01-23T00:38:23.898Z,3.62
2018-01-23T00:39:25.754Z,3.68
2018-01-23T00:40:27.620Z,3.68
2018-01-23T00:41:29.495Z,3.57
2018-01-23T00:42:31.295Z,3.57
2018-01-23T00:43:33.109Z,3.42
2018-01-23T00:44:34.989Z,3.45
2018-01-23T00:45:36.868Z,3.43
2018-01-23T00:46:38.729Z,3.45
2018-01-23T00:47:52.875Z,3.43
2018-01-23T00:48:54.735Z,3.51
2018-01-23T00:49:56.613Z,3.55
2018-01-23T00:50:58.470Z,3.55
2018-01-23T00:52:00.265Z,3.61
2018-01-23T00:53:02.063Z,3.54
2018-01-23T00:54:03.943Z,3.58
2018-01-23T00:55:05.820Z,3.55
2018-01-23T00:56:07.679Z,3.54
2018-01-23T00:57:21.801Z,3.57
2018-01-23T00:58:23.668Z,3.57
2018-01-23T00:59:25.539Z,3.40
2018-01-23T01:00:27.396Z,3.45
2018-01-23T01:01:29.195Z,3.43
2018-01-23T01:02:30.989Z,3.54
2018-01-23T01:03:32.846Z,3.54
2018-01-23T01:04:34.708Z,3.58
2018-01-23T01:05:36.591Z,3.60
2018-01-23T01:06:50.735Z,3.54
2018-01-23T01:07:52.598Z,3.51
2018-01-23T01:08:54.484Z,3.58
2018-01-23T01:09:56.338Z,3.54
2018-01-23T01:10:58.155Z,3.51
2018-01-23T01:11:59.952Z,3.61
2018-01-23T01:13:01.808Z,3.55
2018-01-23T01:14:03.669Z,3.61
2018-01-23T01:15:05.530Z,3.60
2018-01-23T01:16:19.680Z,3.55
2018-01-23T01:17:21.555Z,3.65
2018-01-23T01:18:23.416Z,3.61
2018-01-23T01:19:25.277Z,3.58
2018-01-23T01:20:27.093Z,3.69
2018-01-23T01:21:28.888Z,3.58
2018-01-23T01:22:30.766Z,3.66
2018-01-23T01:23:32.646Z,3.62
2018-01-23T01:24:34.503Z,3.68
2018-01-23T01:25:48.625Z,3.69
2018-01-23T01:26:50.489Z,3.79
2018-01-23T01:27:52.368Z,3.78
2018-01-23T01:28:54.228Z,3.86
2018-01-23T01:29:56.023Z,3.88
2018-01-23T01:30:57.840Z,3.79
2018-01-23T01:31:59.705Z,3.75
2018-01-23T01:33:01.579Z,3.73
2018-01-23T01:34:03.432Z,3.72
2018-01-23T01:35:17.563Z,3.75
2018-01-23T01:36:19.427Z,3.78
2018-01-23T01:37:21.309Z,3.86
2018-01-23T01:38:23.185Z,3.83
2018-01-23T01:39:24.985Z,3.87
2018-01-23T01:40:26.782Z,3.90
2018-01-23T01:41:28.660Z,3.90
2018-01-23T01:42:30.517Z,4.05
2018-01-23T01:43:32.379Z,4.05
2018-01-23T01:44:46.531Z,4.02
2018-01-23T01:45:48.383Z,4.04
2018-01-23T01:46:50.247Z,4.04
2018-01-23T01:47:52.107Z,4.08
2018-01-23T01:48:53.926Z,4.15
2018-01-23T01:49:55.725Z,4.05
2018-01-23T01:50:57.602Z,4.02
2018-01-23T01:51:59.470Z,3.94
2018-01-23T01:53:01.347Z,3.98
2018-01-23T01:54:15.474Z,4.04
2018-01-23T01:55:17.333Z,3.98
2018-01-23T01:56:19.194Z,3.97
2018-01-23T01:57:21.072Z,3.98
2018-01-23T01:58:22.875Z,4.02
2018-01-23T01:59:24.686Z,3.98
2018-01-23T02:00:26.548Z,4.00
2018-01-23T02:01:28.404Z,3.97
2018-01-23T02:02:30.265Z,4.00
2018-01-23T02:03:44.410Z,3.98
2018-01-23T02:04:46.274Z,4.05
2018-01-23T02:05:48.128Z,4.09
2018-01-23T02:06:49.983Z,4.02
2018-01-23T02:07:51.779Z,4.04
2018-01-23T02:08:53.578Z,4.08
2018-01-23T02:09:55.457Z,3.98
2018-01-23T02:10:57.335Z,3.93
2018-01-23T02:11:59.192Z,4.04
2018-01-23T02:13:13.315Z,4.06
2018-01-23T02:14:15.175Z,4.08
2018-01-23T02:15:17.038Z,4.08
2018-01-23T02:16:18.915Z,4.22
2018-01-23T02:17:20.710Z,4.29
2018-01-23T02:18:22.508Z,4.37
2018-01-23T02:19:24.383Z,4.37
2018-01-23T02:20:26.244Z,4.36
2018-01-23T02:21:28.108Z,4.32
2018-01-23T02:22:42.254Z,4.32
2018-01-23T02:23:44.113Z,4.37
2018-01-23T02:24:45.973Z,4.30
2018-01-23T02:25:47.826Z,4.29
2018-01-23T02:26:49.619Z,4.32
2018-01-23T02:27:51.413Z,4.30
2018-01-23T02:28:53.272Z,4.36
2018-01-23T02:29:55.130Z,4.40
2018-01-23T02:30:56.988Z,4.55
2018-01-23T02:32:11.117Z,4.60
2018-01-23T02:33:12.974Z,4.63
2018-01-23T02:34:14.831Z,4.69
2018-01-23T02:35:16.694Z,4.75
2018-01-23T02:36:18.512Z,4.58
2018-01-23T02:37:20.328Z,4.60
2018-01-23T02:38:22.188Z,4.52
2018-01-23T02:39:24.075Z,4.45
2018-01-23T02:40:25.953Z,4.58
2018-01-23T02:41:40.107Z,4.58
2018-01-23T02:42:41.990Z,4.50
2018-01-23T02:43:43.874Z,4.50
2018-01-23T02:44:45.756Z,4.44
2018-01-23T02:45:47.580Z,4.48
2018-01-23T02:46:49.393Z,4.41
2018-01-23T02:47:51.249Z,4.24
2018-01-23T02:48:53.132Z,4.36
2018-01-23T02:49:54.994Z,4.37
2018-01-23T02:51:09.119Z,4.44
2018-01-23T02:52:11.036Z,4.40
2018-01-23T02:53:12.836Z,4.37
2018-01-23T02:54:14.698Z,4.50
2018-01-23T02:55:16.516Z,4.48
2018-01-23T02:56:18.307Z,4.41
2018-01-23T02:57:20.165Z,4.42
2018-01-23T02:58:22.031Z,4.44
2018-01-23T02:59:23.914Z,4.52
2018-01-23T03:00:38.067Z,4.48
2018-01-23T03:01:39.945Z,4.51
2018-01-23T03:02:41.810Z,4.54
2018-01-23T03:03:43.691Z,4.50
2018-01-23T03:04:45.506Z,4.41
2018-01-23T03:05:47.301Z,4.30
2018-01-23T03:06:49.164Z,4.32
2018-01-23T03:07:51.052Z,4.27
2018-01-23T03:08:52.929Z,4.26
2018-01-23T03:10:07.081Z,4.23
2018-01-23T03:11:08.967Z,4.12
2018-01-23T03:12:10.847Z,4.26
2018-01-23T03:13:12.702Z,4.26
2018-01-23T03:14:14.501Z,4.18
2018-01-23T03:15:16.326Z,4.09
2018-01-23T03:16:18.204Z,3.79
2018-01-23T03:17:20.083Z,3.58
2018-01-23T03:18:21.949Z,3.54
2018-01-23T03:19:36.098Z,3.47
2018-01-23T03:20:37.979Z,3.42
2018-01-23T03:21:39.839Z,3.51
2018-01-23T03:22:41.701Z,3.52
2018-01-23T03:23:43.515Z,3.55
2018-01-23T03:24:45.307Z,3.45
2018-01-23T03:25:47.167Z,3.35
2018-01-23T03:26:49.049Z,3.18
2018-01-23T03:27:50.932Z,3.23
2018-01-23T03:29:05.084Z,3.23
2018-01-23T03:30:06.969Z,3.33
2018-01-23T03:31:08.848Z,3.51
2018-01-23T03:32:10.706Z,3.55
2018-01-23T03:33:12.524Z,3.57
2018-01-23T03:34:14.343Z,3.55
2018-01-23T03:35:16.220Z,3.61
2018-01-23T03:36:18.102Z,3.73
2018-01-23T03:37:19.987Z,3.65
2018-01-23T03:38:34.120Z,3.76
2018-01-23T03:39:36.007Z,3.83
2018-01-23T03:40:37.890Z,3.88
2018-01-23T03:41:39.772Z,4.05
2018-01-23T03:42:41.588Z,4.00
2018-01-23T03:43:43.386Z,4.06
2018-01-23T03:44:45.278Z,4.23
2018-01-23T03:45:47.143Z,4.22
2018-01-23T03:46:49.027Z,4.08
2018-01-23T03:48:03.180Z,3.97
2018-01-23T03:49:05.063Z,3.94
2018-01-23T03:50:06.947Z,3.88
2018-01-23T03:51:08.802Z,3.78
2018-01-23T03:52:10.616Z,3.75
2018-01-23T03:53:12.416Z,3.75
2018-01-23T03:54:14.272Z,3.79
2018-01-23T03:55:16.131Z,3.75
2018-01-23T03:56:18.008Z,3.80
2018-01-23T03:57:32.135Z,3.72
2018-01-23T03:58:33.996Z,3.76
2018-01-23T03:59:35.858Z,3.68
2018-01-23T04:00:37.737Z,3.78
2018-01-23T04:01:39.530Z,3.79
2018-01-23T04:02:41.327Z,3.98
2018-01-23T04:03:43.181Z,4.00
2018-01-23T04:04:45.046Z,4.00
2018-01-23T04:05:46.925Z,4.04
2018-01-23T04:07:01.062Z,4.26
2018-01-23T04:08:02.960Z,4.14
2018-01-23T04:09:04.827Z,4.30
2018-01-23T04:10:06.707Z,4.24
2018-01-23T04:11:08.520Z,4.30
2018-01-23T04:12:10.322Z,4.30
2018-01-23T04:13:12.204Z,4.37
2018-01-23T04:14:14.082Z,4.26
2018-01-23T04:15:15.940Z,4.27
2018-01-23T04:16:30.068Z,4.23
2018-01-23T04:17:31.931Z,4.12
2018-01-23T04:18:33.791Z,4.08
2018-01-23T04:19:35.642Z,4.05
2018-01-23T04:20:37.439Z,4.06
2018-01-23T04:21:39.257Z,3.98
2018-01-23T04:22:41.118Z,3.96
2018-01-23T04:23:42.979Z,4.02
2018-01-23T04:24:44.840Z,4.08
2018-01-23T04:25:59.039Z,4.24
2018-01-23T04:27:00.917Z,4.26
2018-01-23T04:28:02.781Z,4.30
2018-01-23T04:29:04.658Z,4.33
2018-01-23T04:30:06.462Z,4.18
2018-01-23T04:31:08.275Z,4.24
2018-01-23T04:32:10.135Z,4.20
2018-01-23T04:33:12.015Z,4.24
2018-01-23T04:34:13.898Z,4.23
2018-01-23T04:35:28.045Z,4.30
2018-01-23T04:36:29.910Z,4.30
2018-01-23T04:37:31.793Z,4.32
2018-01-23T04:38:33.673Z,4.30
2018-01-23T04:39:35.493Z,4.27
2018-01-23T04:40:37.308Z,4.24
2018-01-23T04:41:39.170Z,4.29
2018-01-23T04:42:41.053Z,4.29
2018-01-23T04:43:42.913Z,4.26
2018-01-23T04:44:57.064Z,4.33
2018-01-23T04:45:58.946Z,4.34
2018-01-23T04:47:00.809Z,4.29
2018-01-23T04:48:02.688Z,4.30
2018-01-23T04:49:04.480Z,4.34
2018-01-23T04:50:06.278Z,4.23
2018-01-23T04:51:08.141Z,4.20
2018-01-23T04:52:10.019Z,4.18
2018-01-23T04:53:11.880Z,4.14
2018-01-23T04:54:26.005Z,4.06
2018-01-23T04:55:27.871Z,4.05
2018-01-23T04:56:29.704Z,4.09
2018-01-23T04:57:31.585Z,4.04
2018-01-23T04:58:33.395Z,4.00
2018-01-23T04:59:35.191Z,3.80
2018-01-23T05:00:37.054Z,3.80
2018-01-23T05:01:38.917Z,3.72
2018-01-23T05:02:40.802Z,3.72
2018-01-23T05:03:55.000Z,3.75
2018-01-23T05:04:56.853Z,3.68
2018-01-23T05:05:58.714Z,3.68
2018-01-23T05:07:00.589Z,3.68
2018-01-23T05:08:02.382Z,3.61
2018-01-23T05:09:04.178Z,3.52
2018-01-23T05:10:06.041Z,3.48
2018-01-23T05:11:07.924Z,3.42
2018-01-23T05:12:09.808Z,3.43
2018-01-23T05:13:23.958Z,3.45
2018-01-23T05:14:25.819Z,3.52
2018-01-23T05:15:27.678Z,3.42
2018-01-23T05:16:29.536Z,3.57
2018-01-23T05:17:31.347Z,3.61
2018-01-23T05:18:33.150Z,3.60
2018-01-23T05:19:35.025Z,3.66
2018-01-23T05:20:36.931Z,3.61
2018-01-23T05:21:38.794Z,3.60
2018-01-23T05:22:52.946Z,3.54
2018-01-23T05:23:54.813Z,3.52
2018-01-23T05:24:56.682Z,3.61
2018-01-23T05:25:58.550Z,3.60
2018-01-23T05:27:00.350Z,3.66
2018-01-23T05:28:02.166Z,3.57
2018-01-23T05:29:04.021Z,3.58
2018-01-23T05:30:05.882Z,3.61
2018-01-23T05:31:07.762Z,3.62
2018-01-23T05:32:21.971Z,3.61
2018-01-23T05:33:23.826Z,3.60
2018-01-23T05:34:25.687Z,3.65
2018-01-23T05:35:27.546Z,3.72
2018-01-23T05:36:29.364Z,3.73
2018-01-23T05:37:31.181Z,3.84
2018-01-23T05:38:33.039Z,3.83
2018-01-23T05:39:34.919Z,3.98
2018-01-23T05:40:36.799Z,3.97
2018-01-23T05:41:50.931Z,4.08
2018-01-23T05:42:52.791Z,4.22
2018-01-23T05:43:54.672Z,4.30
2018-01-23T05:44:56.547Z,4.34
2018-01-23T05:45:58.341Z,4.41
2018-01-23T05:47:00.141Z,4.51
2018-01-23T05:48:02.022Z,4.62
2018-01-23T05:49:03.907Z,4.58
2018-01-23T05:50:05.791Z,4.62
2018-01-23T05:51:19.966Z,4.78
2018-01-23T05:52:21.817Z,4.82
2018-01-23T05:53:23.701Z,4.88
2018-01-23T05:54:25.561Z,4.94
2018-01-23T05:55:27.372Z,4.91
2018-01-23T05:56:29.167Z,4.94
2018-01-23T05:57:31.032Z,4.96
2018-01-23T05:58:32.911Z,5.03
2018-01-23T05:59:34.793Z,5.00
2018-01-23T06:00:48.923Z,4.99
2018-01-23T06:01:50.802Z,4.92
2018-01-23T06:02:52.685Z,4.94
2018-01-23T06:03:54.536Z,4.77
2018-01-23T06:04:56.382Z,4.80
2018-01-23T06:05:58.124Z,4.84
2018-01-23T06:06:59.984Z,4.72
2018-01-23T06:08:01.870Z,4.58
2018-01-23T06:09:03.726Z,4.55
2018-01-23T06:10:17.907Z,4.41
2018-01-23T06:11:19.760Z,4.47
2018-01-23T06:12:21.621Z,4.42
2018-01-23T06:13:23.512Z,4.26
2018-01-23T06:14:25.325Z,4.24
2018-01-23T06:15:27.120Z,4.06
2018-01-23T06:16:28.982Z,4.22
2018-01-23T06:17:30.899Z,4.18
2018-01-23T06:18:32.714Z,4.08
2018-01-23T06:19:46.861Z,4.09
2018-01-23T06:20:48.743Z,4.05
2018-01-23T06:21:50.628Z,4.09
2018-01-23T06:22:52.506Z,4.12
2018-01-23T06:23:54.301Z,4.11
2018-01-23T06:24:56.105Z,4.04
2018-01-23T06:25:57.984Z,3.93
2018-01-23T06:26:59.865Z,3.98
2018-01-23T06:28:01.750Z,4.02
2018-01-23T06:29:15.896Z,4.02
2018-01-23T06:30:17.762Z,4.08
2018-01-23T06:31:19.646Z,3.96
2018-01-23T06:32:21.550Z,4.08
2018-01-23T06:33:23.324Z,4.11
2018-01-23T06:34:25.133Z,4.02
2018-01-23T06:35:26.990Z,4.08
2018-01-23T06:36:28.856Z,4.02
2018-01-23T06:37:30.744Z,3.98
2018-01-23T06:38:44.889Z,4.00
2018-01-23T06:39:46.759Z,3.98
2018-01-23T06:40:48.613Z,3.98
2018-01-23T06:41:50.499Z,3.96
2018-01-23T06:42:52.312Z,4.00
2018-01-23T06:43:54.143Z,4.00
2018-01-23T06:44:56.005Z,3.97
2018-01-23T06:45:57.893Z,4.06
2018-01-23T06:46:59.776Z,4.05
2018-01-23T06:48:13.929Z,4.09
2018-01-23T06:49:15.812Z,3.97
2018-01-23T06:50:17.698Z,4.12
2018-01-23T06:51:19.557Z,4.04
2018-01-23T06:52:21.376Z,4.08
2018-01-23T06:53:23.169Z,3.98
2018-01-23T06:54:25.027Z,4.06
2018-01-23T06:55:26.893Z,4.02
2018-01-23T06:56:28.765Z,3.98
2018-01-23T06:57:42.918Z,4.00
2018-01-23T06:58:44.801Z,4.02
2018-01-23T06:59:46.666Z,4.00
2018-01-23T07:00:48.531Z,4.08
2018-01-23T07:01:50.347Z,3.91
2018-01-23T07:02:52.145Z,3.98
2018-01-23T07:03:54.012Z,4.09
2018-01-23T07:04:55.897Z,4.08
2018-01-23T07:05:57.784Z,4.00
2018-01-23T07:07:11.937Z,4.02
2018-01-23T07:08:13.823Z,4.02
2018-01-23T07:09:15.708Z,3.96
2018-01-23T07:10:17.565Z,4.04
2018-01-23T07:11:19.364Z,4.05
2018-01-23T07:12:21.165Z,4.06
2018-01-23T07:13:23.035Z,4.05
2018-01-23T07:14:24.914Z,4.05
2018-01-23T07:15:26.798Z,4.06
2018-01-23T07:16:40.938Z,4.12
2018-01-23T07:17:42.797Z,4.09
2018-01-23T07:18:44.682Z,4.11
2018-01-23T07:19:46.542Z,4.20
2018-01-23T07:20:48.340Z,4.09
2018-01-23T07:21:50.144Z,4.22
2018-01-23T07:22:52.005Z,4.16
2018-01-23T07:23:53.890Z,4.22
2018-01-23T07:24:55.752Z,4.20
2018-01-23T07:26:09.882Z,4.27
2018-01-23T07:27:11.747Z,4.36
2018-01-23T07:28:13.632Z,4.42
2018-01-23T07:29:15.491Z,4.51
2018-01-23T07:30:17.292Z,4.60
2018-01-23T07:31:19.109Z,4.58
2018-01-23T07:32:20.978Z,4.58
2018-01-23T07:33:22.864Z,4.65
2018-01-23T07:34:24.750Z,4.70
2018-01-23T07:35:38.926Z,4.78
2018-01-23T07:36:40.789Z,4.97
2018-01-23T07:37:42.650Z,5.12
2018-01-23T07:38:44.533Z,5.03
2018-01-23T07:39:46.336Z,5.09
2018-01-23T07:40:48.166Z,5.21
2018-01-23T07:41:50.050Z,5.27
2018-01-23T07:42:51.933Z,5.27
2018-01-23T07:43:53.804Z,5.27
2018-01-23T07:45:08.011Z,5.36
2018-01-23T07:46:09.905Z,5.43
2018-01-23T07:47:11.763Z,5.40
2018-01-23T07:48:13.647Z,5.46
2018-01-23T07:49:15.539Z,5.45
2018-01-23T07:50:17.421Z,5.48
2018-01-23T07:51:19.303Z,5.56
2018-01-23T07:52:21.173Z,5.54
2018-01-23T07:53:23.064Z,5.43
2018-01-23T07:54:37.218Z,5.61
2018-01-23T07:55:39.133Z,5.49
2018-01-23T07:56:41.024Z,5.38
2018-01-23T07:57:42.885Z,5.31
2018-01-23T07:58:44.688Z,5.25
2018-01-23T07:59:46.509Z,5.10
2018-01-23T08:00:48.372Z,5.15
2018-01-23T08:01:50.233Z,5.09
2018-01-23T08:02:52.104Z,5.09
2018-01-23T08:04:06.243Z,5.22
2018-01-23T08:05:08.106Z,5.21
2018-01-23T08:06:09.990Z,5.39
2018-01-23T08:07:11.856Z,5.46
2018-01-23T08:08:13.677Z,5.51
2018-01-23T08:09:15.502Z,5.57
2018-01-23T08:10:17.320Z,5.63
2018-01-23T08:11:19.120Z,5.61
2018-01-23T08:12:20.930Z,5.72
2018-01-23T08:13:35.082Z,5.76
2018-01-23T08:14:36.952Z,5.75
2018-01-23T08:15:38.840Z,5.58
2018-01-23T08:16:40.727Z,5.39
2018-01-23T08:17:42.529Z,5.30
2018-01-23T08:18:44.328Z,5.33
2018-01-23T08:19:46.193Z,5.33
2018-01-23T08:20:48.078Z,5.21
2018-01-23T08:21:49.938Z,5.27
2018-01-23T08:23:04.070Z,5.20
2018-01-23T08:24:05.936Z,5.18
2018-01-23T08:25:07.823Z,5.15
2018-01-23T08:26:09.688Z,5.30
2018-01-23T08:27:11.510Z,5.31
2018-01-23T08:28:13.314Z,5.33
2018-01-23T08:29:15.201Z,5.48
2018-01-23T08:30:17.089Z,5.53
2018-01-23T08:31:18.953Z,5.46
2018-01-23T08:32:33.109Z,5.53
2018-01-23T08:33:34.978Z,5.48
2018-01-23T08:34:36.868Z,5.49
2018-01-23T08:35:38.758Z,5.48
2018-01-23T08:36:40.578Z,5.43
2018-01-23T08:37:42.389Z,5.49
2018-01-23T08:38:44.261Z,5.53
2018-01-23T08:39:46.132Z,5.60
2018-01-23T08:40:48.022Z,5.58
2018-01-23T08:42:02.177Z,5.71
2018-01-23T08:43:04.071Z,5.71
2018-01-23T08:44:05.957Z,5.79
2018-01-23T08:45:07.853Z,5.82
2018-01-23T08:46:09.651Z,5.81
2018-01-23T08:47:11.475Z,5.86
2018-01-23T08:48:13.363Z,5.72
2018-01-23T08:49:15.246Z,5.75
2018-01-23T08:50:17.133Z,5.78
2018-01-23T08:51:31.253Z,5.81
2018-01-23T08:52:33.139Z,5.79
2018-01-23T08:53:35.023Z,5.85
2018-01-23T08:54:36.887Z,5.96
2018-01-23T08:55:38.708Z,5.94
2018-01-23T08:56:40.529Z,5.81
2018-01-23T08:57:42.430Z,5.79
2018-01-23T08:58:44.255Z,5.79
2018-01-23T08:59:46.148Z,5.74
2018-01-23T09:01:00.307Z,5.58
2018-01-23T09:02:02.163Z,5.63
2018-01-23T09:03:04.028Z,5.56
2018-01-23T09:04:05.882Z,5.54
2018-01-23T09:05:07.686Z,5.51
2018-01-23T09:06:09.487Z,5.53
2018-01-23T09:07:11.366Z,5.36
2018-01-23T09:08:13.228Z,5.53
2018-01-23T09:09:15.097Z,5.61
2018-01-23T09:10:29.252Z,5.74
2018-01-23T09:11:31.117Z,5.78
2018-01-23T09:12:33.009Z,5.90
2018-01-23T09:13:34.900Z,6.06
2018-01-23T09:14:36.700Z,6.09
2018-01-23T09:15:38.503Z,6.19
2018-01-23T09:16:40.392Z,6.31
2018-01-23T09:17:42.280Z,6.34
2018-01-23T09:18:44.164Z,6.54
2018-01-23T09:19:58.301Z,6.54
2018-01-23T09:21:00.168Z,6.67
2018-01-23T09:22:02.051Z,6.51
2018-01-23T09:23:03.964Z,6.58
2018-01-23T09:24:05.734Z,6.56
2018-01-23T09:25:07.539Z,6.66
2018-01-23T09:26:09.432Z,6.71
2018-01-23T09:27:11.318Z,6.69
2018-01-23T09:28:13.182Z,6.67
2018-01-23T09:29:27.320Z,6.73
2018-01-23T09:30:29.214Z,6.67
2018-01-23T09:31:31.082Z,6.74
2018-01-23T09:32:32.969Z,6.70
2018-01-23T09:33:34.773Z,6.62
2018-01-23T09:34:36.602Z,6.56
2018-01-23T09:35:38.492Z,6.49
2018-01-23T09:36:40.379Z,6.61
2018-01-23T09:37:42.268Z,6.55
2018-01-23T09:38:56.404Z,6.55
2018-01-23T09:39:58.300Z,6.55
2018-01-23T09:41:00.182Z,6.40
2018-01-23T09:42:02.088Z,6.37
2018-01-23T09:43:03.907Z,6.25
2018-01-23T09:44:05.727Z,6.34
2018-01-23T09:45:07.591Z,6.21
2018-01-23T09:46:09.455Z,6.19
2018-01-23T09:47:11.324Z,6.27
2018-01-23T09:48:25.485Z,6.34
2018-01-23T09:49:27.369Z,6.38
2018-01-23T09:50:29.236Z,6.46
2018-01-23T09:51:31.100Z,6.44
2018-01-23T09:52:32.901Z,6.40
2018-01-23T09:53:34.724Z,6.46
2018-01-23T09:54:36.607Z,6.54
2018-01-23T09:55:38.470Z,6.66
2018-01-23T09:56:40.340Z,6.59
2018-01-23T09:57:54.477Z,6.58
2018-01-23T09:58:56.347Z,6.52
2018-01-23T09:59:58.217Z,6.58
2018-01-23T10:01:00.107Z,6.58
2018-01-23T10:02:01.928Z,6.59
2018-01-23T10:03:03.736Z,6.61
2018-01-23T10:04:05.620Z,6.67
2018-01-23T10:05:07.508Z,6.56
2018-01-23T10:06:09.386Z,6.49
2018-01-23T10:07:23.530Z,6.62
2018-01-23T10:08:25.402Z,6.61
2018-01-23T10:09:27.287Z,6.69
2018-01-23T10:10:29.156Z,6.71
2018-01-23T10:11:30.982Z,6.77
2018-01-23T10:12:32.816Z,6.85
2018-01-23T10:13:34.673Z,6.87
2018-01-23T10:14:36.542Z,6.88
2018-01-23T10:15:38.435Z,6.76
2018-01-23T10:16:52.575Z,6.91
2018-01-23T10:17:54.464Z,6.98
2018-01-23T10:18:56.355Z,6.94
2018-01-23T10:19:58.227Z,6.84
2018-01-23T10:21:00.056Z,6.89
2018-01-23T10:22:01.874Z,6.97
2018-01-23T10:23:03.770Z,6.81
2018-01-23T10:24:05.656Z,6.80
2018-01-23T10:25:07.546Z,6.77
2018-01-23T10:26:21.755Z,6.89
2018-01-23T10:27:23.647Z,6.80
2018-01-23T10:28:25.536Z,6.92
2018-01-23T10:29:27.408Z,6.97
2018-01-23T10:30:29.209Z,6.94
2018-01-23T10:31:31.021Z,6.98
2018-01-23T10:32:32.881Z,6.85
2018-01-23T10:33:34.768Z,6.92
2018-01-23T10:34:36.639Z,6.97
2018-01-23T10:35:50.794Z,6.99
2018-01-23T10:36:52.661Z,6.95
2018-01-23T10:37:54.523Z,6.97
2018-01-23T10:38:56.391Z,6.91
2018-01-23T10:39:58.191Z,6.95
2018-01-23T10:41:00.005Z,6.80
2018-01-23T10:42:01.888Z,6.74
2018-01-23T10:43:03.778Z,6.66
2018-01-23T10:44:05.672Z,6.56
2018-01-23T10:45:19.810Z,6.52
2018-01-23T10:46:21.700Z,6.55
2018-01-23T10:47:23.566Z,6.61
2018-01-23T10:48:25.433Z,6.67
2018-01-23T10:49:27.257Z,6.80
2018-01-23T10:50:29.081Z,6.89
2018-01-23T10:51:30.947Z,6.98
2018-01-23T10:52:32.836Z,7.03
2018-01-23T10:53:34.722Z,6.97
2018-01-23T10:54:48.856Z,7.10
2018-01-23T10:55:50.745Z,7.20
2018-01-23T10:56:52.612Z,7.35
2018-01-23T10:57:54.475Z,7.40
2018-01-23T10:58:56.276Z,7.37
2018-01-23T10:59:58.086Z,7.49
2018-01-23T11:00:59.945Z,7.49
2018-01-23T11:02:01.819Z,7.39
2018-01-23T11:03:03.681Z,7.55
2018-01-23T11:04:17.837Z,7.52
2018-01-23T11:05:19.707Z,7.53
2018-01-23T11:06:21.593Z,7.63
2018-01-23T11:07:23.456Z,7.49
2018-01-23T11:08:25.280Z,7.57
2018-01-23T11:09:27.085Z,7.42
2018-01-23T11:10:28.979Z,7.35
2018-01-23T11:11:30.864Z,7.32
2018-01-23T11:12:32.747Z,7.27
2018-01-23T11:13:46.887Z,7.30
2018-01-23T11:14:48.775Z,7.37
2018-01-23T11:15:50.668Z,7.37
2018-01-23T11:16:52.544Z,7.34
2018-01-23T11:17:54.344Z,7.25
2018-01-23T11:18:56.153Z,7.09
2018-01-23T11:19:58.037Z,6.99
2018-01-23T11:20:59.928Z,7.09
2018-01-23T11:22:01.819Z,6.99
2018-01-23T11:23:15.960Z,6.94
2018-01-23T11:24:17.849Z,6.92
2018-01-23T11:25:19.739Z,6.89
2018-01-23T11:26:21.623Z,6.97
2018-01-23T11:27:23.429Z,6.92
2018-01-23T11:28:25.255Z,6.85
2018-01-23T11:29:27.119Z,6.85
2018-01-23T11:30:29.008Z,6.97
2018-01-23T11:31:30.877Z,7.03
2018-01-23T11:32:45.041Z,6.92
2018-01-23T11:33:46.932Z,7.03
2018-01-23T11:34:48.795Z,6.94
2018-01-23T11:35:50.663Z,7.06
2018-01-23T11:36:52.487Z,7.10
2018-01-23T11:37:54.288Z,7.20
2018-01-23T11:38:56.162Z,7.23
2018-01-23T11:39:58.033Z,7.30
2018-01-23T11:40:59.913Z,7.39
2018-01-23T11:42:14.053Z,7.49
2018-01-23T11:43:15.942Z,7.67
2018-01-23T11:44:17.829Z,7.60
2018-01-23T11:45:19.692Z,7.72
2018-01-23T11:46:21.499Z,7.69
2018-01-23T11:47:23.325Z,7.63
2018-01-23T11:48:25.215Z,7.60
2018-01-23T11:49:27.103Z,7.48
2018-01-23T11:50:29.049Z,7.42
2018-01-23T11:51:43.274Z,7.27
2018-01-23T11:52:45.142Z,7.21
2018-01-23T11:53:47.029Z,7.10
2018-01-23T11:54:48.893Z,7.03
2018-01-23T11:55:50.715Z,7.21
2018-01-23T11:56:52.525Z,7.17
2018-01-23T11:57:54.410Z,7.30
2018-01-23T11:58:56.298Z,7.40
2018-01-23T11:59:58.171Z,7.45
2018-01-23T12:01:12.334Z,7.50
2018-01-23T12:02:14.223Z,7.58
2018-01-23T12:03:16.112Z,7.72
2018-01-23T12:04:18.029Z,7.67
2018-01-23T12:05:19.842Z,7.61
2018-01-23T12:06:21.639Z,7.58
2018-01-23T12:07:23.572Z,7.60
2018-01-23T12:08:25.428Z,7.60
2018-01-23T12:09:27.238Z,7.61
2018-01-23T12:10:41.392Z,7.74
2018-01-23T12:11:43.281Z,7.77
2018-01-23T12:12:45.155Z,7.75
2018-01-23T12:13:47.021Z,7.77
2018-01-23T12:14:48.840Z,7.61
2018-01-23T12:15:50.648Z,7.53
2018-01-23T12:16:52.530Z,7.35
2018-01-23T12:17:54.421Z,7.31
2018-01-23T12:18:56.310Z,7.21
2018-01-23T12:20:10.463Z,7.12
2018-01-23T12:21:12.394Z,7.12
2018-01-23T12:22:14.256Z,7.17
2018-01-23T12:23:16.141Z,7.30
2018-01-23T12:24:17.968Z,7.30
2018-01-23T12:25:19.795Z,7.28
2018-01-23T12:26:21.654Z,7.23
2018-01-23T12:27:23.523Z,7.24
2018-01-23T12:28:25.395Z,7.16
2018-01-23T12:29:39.598Z,7.07
2018-01-23T12:30:41.468Z,7.21
2018-01-23T12:31:43.351Z,7.16
2018-01-23T12:32:45.287Z,7.23
2018-01-23T12:33:47.107Z,7.37
2018-01-23T12:34:48.905Z,7.57
2018-01-23T12:35:50.734Z,7.49
2018-01-23T12:36:52.600Z,7.61
2018-01-23T12:37:54.403Z,7.68
2018-01-23T12:39:08.542Z,7.68
2018-01-23T12:40:10.425Z,7.71
2018-01-23T12:41:12.298Z,7.58
2018-01-23T12:42:14.186Z,7.63
2018-01-23T12:43:16.014Z,7.61
2018-01-23T12:44:17.840Z,7.52
2018-01-23T12:45:19.703Z,7.39
2018-01-23T12:46:21.627Z,7.34
2018-01-23T12:47:23.527Z,7.40
2018-01-23T12:48:37.662Z,7.30
2018-01-23T12:49:39.572Z,7.32
2018-01-23T12:50:41.517Z,7.40
2018-01-23T12:51:43.405Z,7.39
2018-01-23T12:52:45.215Z,7.58
2018-01-23T12:53:47.041Z,7.50
2018-01-23T12:54:48.901Z,7.72
2018-01-23T12:55:50.795Z,7.60
2018-01-23T12:56:52.661Z,7.53
2018-01-23T12:58:06.814Z,7.50
2018-01-23T12:59:08.682Z,7.49
2018-01-23T13:00:10.547Z,7.48
2018-01-23T13:01:12.417Z,7.45
2018-01-23T13:02:14.244Z,7.61
2018-01-23T13:03:16.045Z,7.57
2018-01-23T13:04:17.914Z,7.57
2018-01-23T13:05:19.801Z,7.50
2018-01-23T13:06:21.690Z,7.60
2018-01-23T13:07:35.849Z,7.49
2018-01-23T13:08:37.716Z,7.46
2018-01-23T13:09:39.606Z,7.43
2018-01-23T13:10:41.472Z,7.42
2018-01-23T13:11:43.299Z,7.32
2018-01-23T13:12:45.126Z,7.32
2018-01-23T13:13:47.014Z,7.31
2018-01-23T13:14:48.905Z,7.28
2018-01-23T13:15:50.795Z,7.42
2018-01-23T13:17:04.977Z,7.46
2018-01-23T13:18:06.843Z,7.52
2018-01-23T13:19:08.712Z,7.55
2018-01-23T13:20:10.599Z,7.52
2018-01-23T13:21:12.406Z,7.49
2018-01-23T13:22:14.209Z,7.49
2018-01-23T13:23:16.096Z,7.46
2018-01-23T13:24:17.987Z,7.52
2018-01-23T13:25:19.880Z,7.53
2018-01-23T13:26:34.038Z,7.64
2018-01-23T13:27:35.903Z,7.64
2018-01-23T13:28:37.774Z,7.60
2018-01-23T13:29:39.661Z,7.79
2018-01-23T13:30:41.458Z,7.85
2018-01-23T13:31:43.299Z,7.95
2018-01-23T13:32:45.190Z,7.98
2018-01-23T13:33:47.081Z,8.12
2018-01-23T13:34:48.985Z,8.10
2018-01-23T13:36:03.179Z,8.10
2018-01-23T13:37:05.062Z,8.08
2018-01-23T13:38:06.940Z,8.08
2018-01-23T13:39:08.826Z,8.15
2018-01-23T13:40:10.653Z,8.22
2018-01-23T13:41:12.456Z,8.37
2018-01-23T13:42:14.327Z,8.40
2018-01-23T13:43:16.311Z,8.43
2018-01-23T13:44:18.269Z,8.53
2018-01-23T13:45:32.425Z,8.34
2018-01-23T13:46:34.297Z,8.28
2018-01-23T13:47:36.184Z,8.33
2018-01-23T13:48:38.047Z,8.12
2018-01-23T13:49:39.855Z,8.10
2018-01-23T13:50:41.683Z,8.04
2018-01-23T13:51:43.569Z,7.86
2018-01-23T13:52:45.442Z,7.86
2018-01-23T13:53:47.338Z,7.71
2018-01-23T13:55:01.476Z,7.52
2018-01-23T13:56:03.281Z,7.43
2018-01-23T13:57:05.107Z,7.55
2018-01-23T13:58:06.974Z,7.58
2018-01-23T13:59:08.842Z,7.64
2018-01-23T14:00:10.685Z,7.87
2018-01-23T14:01:12.520Z,7.97